createdAt,value
2017-12-04T00:02:03.679Z,86.07
2017-12-04T00:04:09.035Z,86.12
2017-12-04T00:06:16.061Z,86.09
2017-12-04T00:10:35.099Z,86.28
2017-12-04T00:14:46.670Z,86.14
2017-12-04T00:17:06.920Z,86.12
2017-12-04T00:19:11.645Z,86.04
2017-12-04T00:21:17.142Z,86.09
2017-12-04T00:23:33.120Z,86.16
2017-12-04T00:25:40.402Z,86.19
2017-12-04T00:27:45.881Z,86.11
2017-12-04T00:29:48.261Z,86.15
2017-12-04T00:36:50.695Z,86.15
2017-12-04T00:38:54.877Z,86.28
2017-12-04T00:40:59.394Z,86.20
2017-12-04T00:43:01.240Z,86.23
2017-12-04T00:45:03.251Z,86.31
2017-12-04T00:47:05.228Z,86.25
2017-12-04T00:49:07.268Z,86.33
2017-12-04T00:51:09.226Z,86.33
2017-12-04T00:53:11.283Z,86.37
2017-12-04T00:55:13.279Z,86.58
2017-12-04T00:57:15.265Z,86.40
2017-12-04T00:59:17.201Z,86.48
2017-12-04T01:01:19.252Z,86.63
2017-12-04T01:03:21.288Z,86.47
2017-12-04T01:05:23.228Z,86.56
2017-12-04T01:07:25.254Z,86.45
2017-12-04T01:09:27.290Z,86.55
2017-12-04T01:11:29.232Z,86.46
2017-12-04T01:13:31.262Z,86.54
2017-12-04T01:15:33.269Z,86.54
2017-12-04T01:17:35.248Z,86.56
2017-12-04T01:19:37.208Z,86.60
2017-12-04T01:21:39.244Z,86.51
2017-12-04T01:23:41.220Z,86.59
2017-12-04T01:26:37.676Z,86.62
2017-12-04T01:28:40.684Z,86.71
2017-12-04T01:30:42.314Z,86.71
2017-12-04T01:40:38.278Z,86.80
2017-12-04T01:42:40.464Z,86.73
2017-12-04T01:44:42.432Z,86.78
2017-12-04T01:46:45.004Z,86.84
2017-12-04T01:48:47.040Z,86.80
2017-12-04T01:50:49.536Z,86.86
2017-12-04T01:55:08.904Z,86.68
2017-12-04T01:57:12.482Z,86.60
2017-12-04T01:59:14.449Z,86.58
2017-12-04T02:01:16.422Z,86.76
2017-12-04T02:03:18.664Z,86.84
2017-12-04T02:05:20.853Z,87.09
2017-12-04T02:07:22.922Z,86.70
2017-12-04T02:09:24.852Z,86.90
2017-12-04T02:11:27.046Z,86.86
2017-12-04T02:13:29.423Z,86.95
2017-12-04T02:17:51.576Z,86.98
2017-12-04T02:19:56.007Z,86.99
2017-12-04T02:21:58.408Z,87.09
2017-12-04T02:24:00.249Z,87.12
2017-12-04T02:26:02.885Z,87.11
2017-12-04T02:28:04.741Z,87.09
2017-12-04T02:30:06.721Z,87.01
2017-12-04T02:32:09.058Z,86.96
2017-12-04T02:34:11.459Z,87.01
2017-12-04T02:36:14.420Z,86.95
2017-12-04T02:38:17.415Z,87.10
2017-12-04T02:40:20.688Z,87.12
2017-12-04T02:42:22.962Z,86.89
2017-12-04T02:44:24.964Z,87.02
2017-12-04T02:46:27.266Z,87.14
2017-12-04T02:48:30.060Z,87.24
2017-12-04T02:50:32.550Z,87.18
2017-12-04T02:52:45.437Z,87.18
2017-12-04T02:54:49.087Z,87.17
2017-12-04T02:56:52.566Z,87.32
2017-12-04T02:58:55.204Z,87.20
2017-12-04T03:00:57.599Z,87.16
2017-12-04T03:02:59.753Z,87.16
2017-12-04T03:05:01.960Z,87.14
2017-12-04T03:07:05.255Z,87.39
2017-12-04T03:09:08.425Z,87.39
2017-12-04T03:11:14.868Z,87.27
2017-12-04T03:13:20.307Z,87.48
2017-12-04T03:15:23.416Z,87.42
2017-12-04T03:17:27.002Z,87.42
2017-12-04T03:19:29.954Z,87.56
2017-12-04T03:23:16.256Z,87.42
2017-12-04T03:25:21.921Z,87.50
2017-12-04T03:27:24.509Z,87.57
2017-12-04T03:29:27.087Z,87.58
2017-12-04T03:31:30.588Z,87.41
2017-12-04T03:33:32.538Z,87.54
2017-12-04T03:35:35.803Z,87.38
2017-12-04T03:38:18.766Z,87.42
2017-12-04T03:40:21.945Z,87.41
2017-12-04T03:42:24.716Z,87.39
2017-12-04T03:44:26.876Z,87.35
2017-12-04T03:46:28.769Z,87.56
2017-12-04T03:48:32.259Z,87.44
2017-12-04T03:50:42.284Z,87.41
2017-12-04T03:52:57.474Z,87.31
2017-12-04T03:55:01.761Z,87.44
2017-12-04T03:57:04.826Z,87.52
2017-12-04T03:59:09.398Z,87.48
2017-12-04T04:01:11.864Z,87.46
2017-12-04T04:03:14.947Z,87.70
2017-12-04T04:05:18.352Z,87.69
2017-12-04T04:07:22.843Z,87.68
2017-12-04T04:09:24.796Z,87.57
2017-12-04T04:11:28.426Z,87.59
2017-12-04T04:13:31.391Z,87.58
2017-12-04T04:15:36.803Z,87.77
2017-12-04T04:17:39.115Z,87.65
2017-12-04T04:19:42.818Z,87.77
2017-12-04T04:21:54.906Z,87.64
2017-12-04T04:31:53.289Z,87.58
2017-12-04T04:33:56.708Z,87.65
2017-12-04T04:36:01.284Z,87.63
2017-12-04T04:38:13.288Z,87.57
2017-12-04T04:40:16.400Z,87.55
2017-12-04T04:42:19.332Z,87.59
2017-12-04T04:44:34.274Z,87.49
2017-12-04T04:46:37.696Z,87.51
2017-12-04T04:48:51.456Z,87.48
2017-12-04T04:50:54.240Z,87.61
2017-12-04T04:52:57.129Z,87.57
2017-12-04T04:55:10.020Z,87.43
2017-12-04T04:57:12.690Z,87.49
2017-12-04T04:59:15.270Z,87.40
2017-12-04T05:01:18.289Z,87.60
2017-12-04T05:03:21.708Z,87.61
2017-12-04T05:05:23.276Z,87.59
2017-12-04T05:07:33.328Z,87.67
2017-12-04T05:09:45.289Z,87.72
2017-12-04T05:12:00.271Z,87.64
2017-12-04T05:14:12.271Z,87.68
2017-12-04T05:16:14.711Z,87.59
2017-12-04T05:18:19.673Z,87.66
2017-12-04T05:20:22.268Z,87.69
2017-12-04T05:22:24.289Z,87.65
2017-12-04T05:24:32.640Z,87.66
2017-12-04T05:26:34.260Z,87.69
2017-12-04T05:28:37.016Z,87.71
2017-12-04T05:33:03.060Z,87.81
2017-12-04T05:35:06.718Z,87.83
2017-12-04T05:37:12.287Z,87.76
2017-12-04T05:39:17.125Z,87.82
2017-12-04T05:41:19.907Z,87.78
2017-12-04T05:43:23.959Z,87.83
2017-12-04T05:45:28.195Z,87.77
2017-12-04T05:47:33.377Z,87.87
2017-12-04T05:49:38.920Z,87.83
2017-12-04T05:51:46.912Z,87.88
2017-12-04T05:56:00.982Z,87.88
2017-12-04T05:59:11.694Z,87.92
2017-12-04T06:01:16.767Z,87.79
2017-12-04T06:05:29.431Z,87.77
2017-12-04T06:07:40.473Z,87.68
2017-12-04T06:15:45.849Z,87.94
2017-12-04T06:28:38.414Z,88.01
2017-12-04T06:30:43.981Z,88.09
2017-12-04T06:34:59.000Z,88.11
2017-12-04T06:37:07.377Z,88.04
2017-12-04T06:39:10.917Z,88.14
2017-12-04T06:41:19.076Z,88.03
2017-12-04T06:43:24.394Z,88.04
2017-12-04T06:47:36.661Z,88.22
2017-12-04T06:49:38.868Z,88.26
2017-12-04T06:51:42.645Z,88.33
2017-12-04T06:53:48.671Z,88.27
2017-12-04T06:56:40.274Z,88.31
2017-12-04T06:58:45.443Z,88.32
2017-12-04T07:00:48.595Z,88.47
2017-12-04T07:02:51.468Z,88.39
2017-12-04T07:08:15.824Z,88.34
2017-12-04T07:10:18.312Z,88.35
2017-12-04T07:12:23.287Z,88.40
2017-12-04T07:14:26.663Z,88.40
2017-12-04T07:18:37.457Z,88.54
2017-12-04T07:20:39.834Z,88.45
2017-12-04T07:22:43.803Z,88.31
2017-12-04T07:24:51.264Z,88.25
2017-12-04T07:27:11.792Z,88.40
2017-12-04T07:35:44.307Z,88.38
2017-12-04T07:37:51.246Z,88.45
2017-12-04T07:39:56.782Z,88.35
2017-12-04T07:41:59.854Z,88.42
2017-12-04T07:48:14.335Z,88.38
2017-12-04T07:50:18.043Z,88.38
2017-12-04T08:00:39.411Z,88.64
2017-12-04T08:04:57.113Z,88.51
2017-12-04T08:07:01.097Z,88.44
2017-12-04T08:09:05.678Z,88.48
2017-12-04T08:15:19.280Z,88.43
2017-12-04T08:59:03.832Z,88.50
2017-12-04T09:03:16.125Z,88.37
2017-12-04T09:05:21.314Z,88.45
2017-12-04T09:07:25.722Z,88.54
2017-12-04T09:09:30.733Z,88.34
2017-12-04T09:11:46.252Z,88.50
2017-12-04T09:15:55.677Z,88.48
2017-12-04T09:59:47.072Z,88.60
2017-12-04T10:01:50.420Z,88.84
2017-12-04T10:03:58.138Z,88.89
2017-12-04T10:08:10.018Z,88.52
2017-12-04T10:10:14.080Z,88.67
2017-12-04T10:12:18.633Z,88.75
2017-12-04T10:14:24.469Z,88.66
2017-12-04T10:18:45.771Z,88.53
2017-12-04T10:20:49.387Z,88.69
2017-12-04T10:22:53.616Z,88.89
2017-12-04T10:24:58.344Z,88.61
2017-12-04T10:27:03.579Z,88.88
2017-12-04T10:31:28.978Z,88.49
2017-12-04T10:33:31.112Z,88.43
2017-12-04T10:35:34.176Z,88.29
2017-12-04T10:39:57.927Z,88.41
2017-12-04T10:42:00.306Z,88.65
2017-12-04T10:44:05.896Z,88.62
2017-12-04T10:46:14.037Z,88.76
2017-12-04T10:48:16.355Z,88.35
2017-12-04T10:50:20.452Z,88.52
2017-12-04T10:52:23.132Z,88.64
2017-12-04T10:56:40.684Z,88.71
2017-12-04T10:58:49.246Z,88.91
2017-12-04T11:01:24.154Z,88.49
2017-12-04T11:03:27.338Z,88.96
2017-12-04T11:05:33.397Z,88.80
2017-12-04T11:07:37.517Z,88.64
2017-12-04T11:09:44.984Z,88.68
2017-12-04T11:11:49.852Z,88.73
2017-12-04T11:13:54.947Z,88.91
2017-12-04T11:18:18.184Z,88.81
2017-12-04T11:20:20.908Z,88.65
2017-12-04T11:22:24.380Z,88.57
2017-12-04T11:26:40.265Z,88.79
2017-12-04T11:28:46.111Z,89.07
2017-12-04T11:30:52.794Z,88.69
2017-12-04T11:32:59.048Z,88.92
2017-12-04T11:35:02.297Z,88.93
2017-12-04T11:37:07.975Z,88.92
2017-12-04T11:39:13.744Z,88.92
2017-12-04T11:43:23.555Z,88.59
2017-12-04T11:45:41.043Z,88.75
2017-12-04T11:49:56.798Z,88.34
2017-12-04T11:52:01.776Z,88.74
2017-12-04T11:54:29.325Z,88.76
2017-12-04T11:58:53.552Z,88.42
2017-12-04T12:01:00.951Z,88.33
2017-12-04T12:05:18.689Z,88.74
2017-12-04T12:07:21.796Z,88.48
2017-12-04T12:13:49.862Z,88.70
2017-12-04T12:16:33.807Z,88.56
2017-12-04T12:18:38.741Z,88.36
2017-12-04T12:20:44.896Z,88.45
2017-12-04T12:22:50.681Z,88.78
2017-12-04T12:24:52.705Z,88.59
2017-12-04T12:29:13.974Z,88.45
2017-12-04T12:31:22.030Z,88.43
2017-12-04T12:33:29.135Z,88.45
2017-12-04T12:35:38.511Z,88.58
2017-12-04T12:37:42.800Z,88.51
2017-12-04T12:39:54.027Z,88.21
2017-12-04T12:43:34.407Z,88.31
2017-12-04T12:45:36.312Z,88.89
2017-12-04T12:47:39.303Z,88.50
2017-12-04T12:49:42.816Z,88.20
2017-12-04T12:51:45.293Z,88.58
2017-12-04T13:01:04.343Z,88.54
2017-12-04T13:03:09.261Z,89.16
2017-12-04T13:07:22.322Z,88.31
2017-12-04T13:10:34.685Z,88.26
2017-12-04T13:12:41.480Z,88.07
2017-12-04T13:15:10.110Z,88.08
2017-12-04T13:17:16.709Z,88.26
2017-12-04T13:19:47.229Z,88.10
2017-12-04T13:21:51.256Z,88.12
2017-12-04T13:26:36.279Z,88.21
2017-12-04T13:28:45.697Z,89.09
2017-12-04T13:30:51.916Z,88.53
2017-12-04T13:33:02.621Z,88.97
2017-12-04T13:36:49.228Z,88.37
2017-12-04T13:39:24.767Z,88.13
2017-12-04T13:42:34.880Z,88.38
2017-12-04T13:44:38.766Z,88.08
2017-12-04T13:46:40.731Z,87.96
2017-12-04T13:48:43.535Z,88.02
2017-12-04T13:50:46.948Z,88.53
2017-12-04T13:52:49.892Z,87.95
2017-12-04T13:54:52.820Z,87.89
2017-12-04T13:56:55.222Z,88.18
2017-12-04T13:58:57.329Z,88.18
2017-12-04T14:01:01.225Z,87.94
2017-12-04T14:03:04.800Z,87.94
2017-12-04T14:05:07.455Z,88.09
2017-12-04T14:11:55.152Z,88.68
2017-12-04T14:13:59.255Z,88.03
2017-12-04T14:16:03.607Z,87.83
2017-12-04T14:26:34.660Z,87.86
2017-12-04T14:28:38.180Z,87.76
2017-12-04T14:30:42.106Z,87.97
2017-12-04T14:32:44.930Z,87.92
2017-12-04T14:34:47.635Z,87.85
2017-12-04T14:38:33.069Z,87.89
2017-12-04T14:40:35.945Z,87.87
2017-12-04T14:42:40.742Z,87.84
2017-12-04T14:44:44.348Z,87.74
2017-12-04T14:46:48.902Z,87.76
2017-12-04T14:48:53.098Z,87.74
2017-12-04T14:50:56.813Z,87.66
2017-12-04T14:53:00.001Z,87.74
2017-12-04T14:55:04.005Z,87.76
2017-12-04T14:57:07.007Z,87.75
2017-12-04T14:59:10.021Z,87.74
2017-12-04T15:01:13.145Z,87.92
2017-12-04T15:03:16.439Z,87.90
2017-12-04T15:05:19.824Z,87.71
2017-12-04T15:07:22.974Z,87.61
2017-12-04T15:09:25.994Z,87.61
2017-12-04T15:11:29.595Z,87.55
2017-12-04T15:13:34.801Z,87.65
2017-12-04T15:15:40.361Z,87.77
2017-12-04T15:17:43.787Z,87.62
2017-12-04T15:19:47.173Z,87.71
2017-12-04T15:21:49.934Z,87.62
2017-12-04T15:23:53.611Z,87.53
2017-12-04T15:25:58.055Z,87.55
2017-12-04T15:28:02.127Z,87.52
2017-12-04T15:30:05.598Z,87.71
2017-12-04T15:32:08.852Z,87.60
2017-12-04T15:34:11.849Z,87.61
2017-12-04T15:36:16.318Z,87.50
2017-12-04T15:38:19.935Z,87.49
2017-12-04T15:40:22.820Z,87.58
2017-12-04T15:42:25.868Z,87.49
2017-12-04T15:44:28.729Z,87.51
2017-12-04T15:46:31.476Z,87.58
2017-12-04T15:50:35.282Z,87.43
2017-12-04T15:52:37.976Z,87.60
2017-12-04T15:54:41.071Z,87.46
2017-12-04T15:56:44.874Z,87.45
2017-12-04T15:58:47.934Z,87.46
2017-12-04T16:00:50.950Z,87.59
2017-12-04T16:02:53.737Z,87.45
2017-12-04T16:04:57.041Z,87.47
2017-12-04T16:07:00.023Z,87.42
2017-12-04T16:09:03.032Z,87.52
2017-12-04T16:11:05.766Z,87.88
2017-12-04T16:13:09.051Z,87.60
2017-12-04T16:15:11.945Z,87.54
2017-12-04T16:17:15.458Z,87.62
2017-12-04T16:19:17.903Z,87.60
2017-12-04T16:21:20.546Z,87.58
2017-12-04T16:23:23.894Z,87.54
2017-12-04T16:25:26.889Z,87.70
2017-12-04T16:27:29.471Z,87.54
2017-12-04T16:31:51.502Z,87.58
2017-12-04T16:33:54.082Z,87.53
2017-12-04T16:35:57.079Z,87.57
2017-12-04T16:37:59.941Z,87.57
2017-12-04T16:40:02.725Z,87.62
2017-12-04T16:42:36.840Z,87.51
2017-12-04T16:44:39.811Z,87.57
2017-12-04T16:46:51.331Z,87.61
2017-12-04T16:48:54.616Z,87.83
2017-12-04T16:50:57.979Z,87.78
2017-12-04T16:53:01.720Z,87.60
2017-12-04T16:55:05.229Z,87.62
2017-12-04T16:57:08.609Z,87.65
2017-12-04T16:59:11.264Z,87.70
2017-12-04T17:02:34.880Z,87.81
2017-12-04T17:04:37.841Z,87.83
2017-12-04T17:06:40.749Z,87.68
2017-12-04T17:08:43.599Z,87.66
2017-12-04T17:10:46.572Z,87.63
2017-12-04T17:12:49.063Z,87.71
2017-12-04T17:14:52.769Z,87.80
2017-12-04T17:16:55.821Z,87.81
2017-12-04T17:18:58.501Z,87.82
2017-12-04T17:21:01.100Z,87.73
2017-12-04T17:23:03.979Z,87.72
2017-12-04T17:25:06.795Z,87.76
2017-12-04T17:27:09.869Z,87.71
2017-12-04T17:29:12.870Z,87.83
2017-12-04T17:31:36.840Z,87.87
2017-12-04T17:33:39.984Z,87.99
2017-12-04T17:35:42.561Z,88.10
2017-12-04T17:37:44.929Z,88.13
2017-12-04T17:39:47.894Z,88.47
2017-12-04T17:42:35.849Z,88.39
2017-12-04T17:44:38.301Z,88.53
2017-12-04T17:46:40.897Z,88.82
2017-12-04T17:48:43.471Z,89.10
2017-12-04T17:50:45.823Z,88.93
2017-12-04T17:52:48.553Z,88.45
2017-12-04T17:54:51.098Z,88.29
2017-12-04T17:56:53.989Z,88.69
2017-12-04T17:58:56.840Z,89.20
2017-12-04T18:00:59.040Z,88.70
2017-12-04T18:03:02.802Z,88.44
2017-12-04T18:05:05.902Z,88.83
2017-12-04T18:07:08.808Z,89.18
2017-12-04T18:09:11.757Z,89.09
2017-12-04T18:11:14.808Z,89.24
2017-12-04T18:13:17.843Z,89.03
2017-12-04T18:15:21.046Z,88.90
2017-12-04T18:17:23.909Z,88.91
2017-12-04T18:19:26.604Z,88.83
2017-12-04T18:21:29.044Z,88.70
2017-12-04T18:23:33.657Z,88.83
2017-12-04T18:25:36.492Z,89.19
2017-12-04T18:27:39.707Z,88.83
2017-12-04T18:29:41.922Z,89.02
2017-12-04T18:31:44.746Z,89.02
2017-12-04T18:33:47.598Z,89.09
2017-12-04T18:35:50.465Z,89.24
2017-12-04T18:37:53.033Z,89.46
2017-12-04T18:39:55.899Z,89.18
2017-12-04T18:41:58.692Z,89.36
2017-12-04T18:44:01.992Z,89.34
2017-12-04T18:46:04.961Z,89.26
2017-12-04T18:48:07.814Z,89.42
2017-12-04T18:50:10.939Z,89.13
2017-12-04T18:52:13.723Z,89.28
2017-12-04T18:54:16.810Z,89.26
2017-12-04T18:56:20.846Z,89.13
2017-12-04T18:58:23.922Z,88.90
2017-12-04T19:00:26.588Z,89.34
2017-12-04T19:02:29.046Z,89.28
2017-12-04T19:04:33.098Z,89.16
2017-12-04T19:06:35.941Z,89.11
2017-12-04T19:08:38.814Z,88.89
2017-12-04T19:10:41.265Z,88.97
2017-12-04T19:18:42.978Z,88.86
2017-12-04T19:22:56.284Z,89.75
2017-12-04T19:24:58.582Z,89.33
2017-12-04T19:27:00.926Z,88.92
2017-12-04T19:29:03.735Z,88.77
2017-12-04T19:31:06.405Z,88.81
2017-12-04T19:33:08.882Z,88.93
2017-12-04T19:35:10.719Z,89.16
2017-12-04T19:37:12.993Z,88.90
2017-12-04T19:39:15.591Z,89.03
2017-12-04T19:41:17.973Z,89.07
2017-12-04T19:43:20.762Z,88.85
2017-12-04T19:45:23.082Z,89.13
2017-12-04T19:47:26.000Z,89.13
2017-12-04T19:49:28.990Z,89.00
2017-12-04T19:51:31.878Z,89.14
2017-12-04T19:53:34.723Z,89.06
2017-12-04T19:55:37.077Z,89.10
2017-12-04T19:57:39.566Z,88.99
2017-12-04T19:59:41.916Z,89.09
2017-12-04T20:01:44.432Z,89.03
2017-12-04T20:03:46.755Z,88.89
2017-12-04T20:05:48.808Z,88.88
2017-12-04T20:07:50.984Z,88.82
2017-12-04T20:09:53.506Z,88.91
2017-12-04T20:11:55.949Z,88.90
2017-12-04T20:13:58.820Z,89.07
2017-12-04T20:16:00.991Z,88.95
2017-12-04T20:18:03.369Z,88.97
2017-12-04T20:20:05.921Z,89.00
2017-12-04T20:22:08.387Z,89.15
2017-12-04T20:24:10.623Z,89.03
2017-12-04T20:26:12.263Z,88.91
2017-12-04T20:28:14.319Z,88.89
2017-12-04T20:30:16.249Z,88.90
2017-12-04T20:32:18.218Z,88.76
2017-12-04T20:34:20.263Z,88.69
2017-12-04T20:36:23.245Z,88.58
2017-12-04T20:38:25.262Z,88.57
2017-12-04T20:40:27.291Z,88.73
2017-12-04T20:42:29.321Z,88.88
2017-12-04T20:44:31.400Z,88.82
2017-12-04T20:46:33.291Z,88.79
2017-12-04T20:48:35.251Z,88.73
2017-12-04T20:50:37.288Z,88.83
2017-12-04T20:52:39.280Z,88.80
2017-12-04T20:54:41.277Z,88.87
2017-12-04T20:56:43.286Z,88.81
2017-12-04T20:58:45.285Z,88.82
2017-12-04T21:00:47.970Z,88.99
2017-12-04T21:02:50.876Z,88.94
2017-12-04T21:04:54.708Z,89.80
2017-12-04T21:06:58.400Z,89.56
2017-12-04T21:09:09.287Z,88.85
2017-12-04T21:11:23.710Z,88.05
2017-12-04T21:13:32.254Z,87.58
2017-12-04T21:15:42.088Z,87.13
2017-12-04T21:17:46.360Z,86.74
2017-12-04T21:19:48.273Z,86.41
2017-12-04T21:21:51.274Z,86.16
2017-12-04T21:23:59.261Z,86.05
2017-12-04T21:26:01.257Z,85.89
2017-12-04T21:28:03.254Z,85.61
2017-12-04T21:30:06.241Z,85.47
2017-12-04T21:32:08.249Z,85.41
2017-12-04T21:34:10.237Z,85.26
2017-12-04T21:36:13.266Z,85.13
2017-12-04T21:38:15.269Z,84.98
2017-12-04T21:40:18.270Z,84.98
2017-12-04T21:42:21.633Z,85.07
2017-12-04T21:44:25.683Z,84.90
2017-12-04T21:46:27.260Z,84.86
2017-12-04T21:48:29.679Z,84.80
2017-12-04T21:50:32.236Z,84.69
2017-12-04T21:52:34.256Z,84.85
2017-12-04T21:54:37.262Z,84.69
2017-12-04T21:56:43.015Z,84.61
2017-12-04T21:58:47.690Z,84.65
2017-12-04T22:00:49.251Z,84.59
2017-12-04T22:02:51.263Z,84.52
2017-12-04T22:04:54.259Z,84.58
2017-12-04T22:06:56.422Z,84.50
2017-12-04T22:09:02.110Z,84.41
2017-12-04T22:11:06.214Z,84.30
2017-12-04T22:13:09.103Z,84.36
2017-12-04T22:15:22.062Z,84.27
2017-12-04T22:17:34.312Z,84.15
2017-12-04T22:19:39.435Z,84.17
2017-12-04T22:21:41.277Z,84.23
2017-12-04T22:23:43.786Z,84.07
2017-12-04T22:25:45.751Z,84.08
2017-12-04T22:27:51.363Z,84.00
2017-12-04T22:29:58.678Z,84.07
2017-12-04T22:32:02.267Z,84.04
2017-12-04T22:34:04.278Z,84.12
2017-12-04T22:36:06.281Z,84.10
2017-12-04T22:38:13.528Z,84.08
2017-12-04T22:40:20.678Z,84.04
2017-12-04T22:42:23.095Z,84.04
2017-12-04T22:44:26.233Z,84.05
2017-12-04T22:46:31.700Z,84.08
2017-12-04T22:48:35.237Z,83.91
2017-12-04T22:50:38.050Z,84.04
2017-12-04T22:52:39.915Z,84.07
2017-12-04T22:54:42.276Z,84.10
2017-12-04T22:56:44.234Z,84.06
2017-12-04T22:58:47.218Z,83.99
2017-12-04T23:00:57.953Z,84.10
2017-12-04T23:03:00.255Z,84.10
2017-12-04T23:05:12.201Z,84.09
2017-12-04T23:07:18.078Z,84.13
2017-12-04T23:09:23.618Z,84.14
2017-12-04T23:11:35.243Z,84.10
2017-12-04T23:13:50.278Z,84.14
2017-12-04T23:15:55.208Z,84.13
2017-12-04T23:18:03.538Z,84.08
2017-12-04T23:22:41.053Z,84.08
2017-12-04T23:24:44.858Z,84.13
2017-12-04T23:26:50.652Z,84.20
2017-12-04T23:28:52.856Z,84.18
2017-12-04T23:30:58.310Z,84.14
2017-12-04T23:33:03.955Z,84.12
2017-12-04T23:35:06.103Z,84.20
2017-12-04T23:44:57.027Z,84.27
2017-12-04T23:46:59.819Z,84.21
2017-12-04T23:49:04.578Z,84.31
2017-12-04T23:51:07.049Z,84.32
2017-12-04T23:53:09.737Z,84.33
